sensor_id;sensor_type;location;lat;lon;timestamp;P1;durP1;ratioP1;P2;durP2;ratioP2
13026;SDS011;6580;42.680;23.324;2023-05-07T00:02:39;8.57;;;7.67;;
13026;SDS011;6580;42.680;23.324;2023-05-07T00:05:26;10.63;;;8.03;;
13026;SDS011;6580;42.680;23.324;2023-05-07T00:08:12;10.13;;;7.40;;
13026;SDS011;6580;42.680;23.324;2023-05-07T00:10:59;10.40;;;7.60;;
13026;SDS011;6580;42.680;23.324;2023-05-07T00:16:49;10.30;;;8.23;;
13026;SDS011;6580;42.680;23.324;2023-05-07T00:19:36;12.87;;;8.80;;
13026;SDS011;6580;42.680;23.324;2023-05-07T00:22:22;10.40;;;7.93;;
13026;SDS011;6580;42.680;23.324;2023-05-07T00:25:11;12.50;;;8.70;;
13026;SDS011;6580;42.680;23.324;2023-05-07T00:27:56;11.10;;;8.40;;
13026;SDS011;6580;42.680;23.324;2023-05-07T00:30:48;9.50;;;7.57;;
13026;SDS011;6580;42.680;23.324;2023-05-07T00:33:37;8.77;;;7.70;;
13026;SDS011;6580;42.680;23.324;2023-05-07T00:36:25;8.43;;;7.20;;
13026;SDS011;6580;42.680;23.324;2023-05-07T00:39:17;10.30;;;7.30;;
13026;SDS011;6580;42.680;23.324;2023-05-07T00:42:07;8.97;;;7.80;;
13026;SDS011;6580;42.680;23.324;2023-05-07T00:44:55;9.00;;;7.70;;
13026;SDS011;6580;42.680;23.324;2023-05-07T00:47:45;11.70;;;7.97;;
13026;SDS011;6580;42.680;23.324;2023-05-07T00:50:31;8.87;;;6.90;;
13026;SDS011;6580;42.680;23.324;2023-05-07T00:53:17;9.43;;;7.40;;
13026;SDS011;6580;42.680;23.324;2023-05-07T00:56:04;9.27;;;7.77;;
13026;SDS011;6580;42.680;23.324;2023-05-07T00:58:52;9.50;;;7.87;;
13026;SDS011;6580;42.680;23.324;2023-05-07T01:01:38;12.00;;;8.00;;
13026;SDS011;6580;42.680;23.324;2023-05-07T01:04:28;10.20;;;7.90;;
13026;SDS011;6580;42.680;23.324;2023-05-07T01:07:14;10.57;;;7.33;;
13026;SDS011;6580;42.680;23.324;2023-05-07T01:10:00;9.07;;;7.43;;
13026;SDS011;6580;42.680;23.324;2023-05-07T01:12:49;8.97;;;8.00;;
13026;SDS011;6580;42.680;23.324;2023-05-07T01:15:42;9.60;;;7.23;;
13026;SDS011;6580;42.680;23.324;2023-05-07T01:18:30;11.27;;;8.07;;
13026;SDS011;6580;42.680;23.324;2023-05-07T01:21:17;8.20;;;7.37;;
13026;SDS011;6580;42.680;23.324;2023-05-07T01:24:08;9.70;;;7.93;;
13026;SDS011;6580;42.680;23.324;2023-05-07T01:26:54;9.97;;;7.87;;
13026;SDS011;6580;42.680;23.324;2023-05-07T01:29:42;8.67;;;7.57;;
13026;SDS011;6580;42.680;23.324;2023-05-07T01:32:33;9.73;;;7.43;;
13026;SDS011;6580;42.680;23.324;2023-05-07T01:35:24;8.80;;;6.53;;
13026;SDS011;6580;42.680;23.324;2023-05-07T01:38:16;9.07;;;6.40;;
13026;SDS011;6580;42.680;23.324;2023-05-07T01:41:06;7.57;;;6.40;;
13026;SDS011;6580;42.680;23.324;2023-05-07T01:43:52;6.93;;;6.07;;
13026;SDS011;6580;42.680;23.324;2023-05-07T01:46:43;8.87;;;6.60;;
13026;SDS011;6580;42.680;23.324;2023-05-07T01:49:32;8.30;;;6.97;;
13026;SDS011;6580;42.680;23.324;2023-05-07T01:52:17;7.40;;;6.60;;
13026;SDS011;6580;42.680;23.324;2023-05-07T01:55:05;9.70;;;7.23;;
13026;SDS011;6580;42.680;23.324;2023-05-07T01:57:55;7.43;;;5.93;;
13026;SDS011;6580;42.680;23.324;2023-05-07T02:00:46;7.00;;;6.30;;
13026;SDS011;6580;42.680;23.324;2023-05-07T02:03:34;6.43;;;5.63;;
13026;SDS011;6580;42.680;23.324;2023-05-07T02:06:20;6.43;;;5.67;;
13026;SDS011;6580;42.680;23.324;2023-05-07T02:09:08;5.70;;;4.83;;
13026;SDS011;6580;42.680;23.324;2023-05-07T02:11:54;5.83;;;5.27;;
13026;SDS011;6580;42.680;23.324;2023-05-07T02:14:47;5.80;;;5.13;;
13026;SDS011;6580;42.680;23.324;2023-05-07T02:17:34;5.93;;;4.97;;
13026;SDS011;6580;42.680;23.324;2023-05-07T02:20:24;6.57;;;5.13;;
13026;SDS011;6580;42.680;23.324;2023-05-07T02:23:10;6.10;;;5.50;;
13026;SDS011;6580;42.680;23.324;2023-05-07T02:25:57;5.53;;;5.03;;
13026;SDS011;6580;42.680;23.324;2023-05-07T02:28:42;5.67;;;5.10;;
13026;SDS011;6580;42.680;23.324;2023-05-07T02:31:30;5.93;;;5.20;;
13026;SDS011;6580;42.680;23.324;2023-05-07T02:34:23;5.47;;;4.97;;
13026;SDS011;6580;42.680;23.324;2023-05-07T02:37:10;5.97;;;5.27;;
13026;SDS011;6580;42.680;23.324;2023-05-07T02:39:56;5.03;;;4.40;;
13026;SDS011;6580;42.680;23.324;2023-05-07T02:42:43;6.23;;;5.27;;
13026;SDS011;6580;42.680;23.324;2023-05-07T02:45:29;6.70;;;5.87;;
13026;SDS011;6580;42.680;23.324;2023-05-07T02:48:22;6.13;;;5.53;;
13026;SDS011;6580;42.680;23.324;2023-05-07T02:51:08;6.67;;;5.97;;
13026;SDS011;6580;42.680;23.324;2023-05-07T02:54:02;8.83;;;5.40;;
13026;SDS011;6580;42.680;23.324;2023-05-07T02:56:50;5.53;;;5.03;;
13026;SDS011;6580;42.680;23.324;2023-05-07T02:59:45;6.23;;;5.20;;
13026;SDS011;6580;42.680;23.324;2023-05-07T03:02:32;6.03;;;5.40;;
13026;SDS011;6580;42.680;23.324;2023-05-07T03:05:19;6.63;;;5.93;;
13026;SDS011;6580;42.680;23.324;2023-05-07T03:08:05;6.93;;;6.23;;
13026;SDS011;6580;42.680;23.324;2023-05-07T03:10:53;7.10;;;5.93;;
13026;SDS011;6580;42.680;23.324;2023-05-07T03:13:41;6.47;;;5.77;;
13026;SDS011;6580;42.680;23.324;2023-05-07T03:16:29;6.23;;;5.63;;
13026;SDS011;6580;42.680;23.324;2023-05-07T03:19:18;8.10;;;5.87;;
13026;SDS011;6580;42.680;23.324;2023-05-07T03:22:04;6.83;;;6.00;;
13026;SDS011;6580;42.680;23.324;2023-05-07T03:24:50;7.87;;;6.37;;
13026;SDS011;6580;42.680;23.324;2023-05-07T03:27:36;7.17;;;6.20;;
13026;SDS011;6580;42.680;23.324;2023-05-07T03:30:24;7.70;;;6.10;;
13026;SDS011;6580;42.680;23.324;2023-05-07T03:33:09;6.97;;;5.93;;
13026;SDS011;6580;42.680;23.324;2023-05-07T03:35:56;6.90;;;6.10;;
13026;SDS011;6580;42.680;23.324;2023-05-07T03:38:45;6.47;;;5.83;;
13026;SDS011;6580;42.680;23.324;2023-05-07T03:41:32;7.90;;;6.30;;
13026;SDS011;6580;42.680;23.324;2023-05-07T03:44:20;7.13;;;6.43;;
13026;SDS011;6580;42.680;23.324;2023-05-07T03:47:11;7.53;;;6.20;;
13026;SDS011;6580;42.680;23.324;2023-05-07T03:49:56;8.67;;;6.80;;
13026;SDS011;6580;42.680;23.324;2023-05-07T03:52:45;9.00;;;6.80;;
13026;SDS011;6580;42.680;23.324;2023-05-07T03:55:33;8.33;;;6.87;;
13026;SDS011;6580;42.680;23.324;2023-05-07T03:58:22;7.57;;;6.40;;
13026;SDS011;6580;42.680;23.324;2023-05-07T04:01:08;7.10;;;6.50;;
13026;SDS011;6580;42.680;23.324;2023-05-07T04:03:55;7.73;;;7.00;;
13026;SDS011;6580;42.680;23.324;2023-05-07T04:06:41;9.83;;;6.80;;
13026;SDS011;6580;42.680;23.324;2023-05-07T04:09:27;6.97;;;6.27;;
13026;SDS011;6580;42.680;23.324;2023-05-07T04:12:17;7.93;;;6.63;;
13026;SDS011;6580;42.680;23.324;2023-05-07T04:15:03;10.30;;;7.00;;
13026;SDS011;6580;42.680;23.324;2023-05-07T04:17:49;7.77;;;6.90;;
13026;SDS011;6580;42.680;23.324;2023-05-07T04:20:35;7.77;;;6.83;;
13026;SDS011;6580;42.680;23.324;2023-05-07T04:23:21;6.83;;;6.23;;
13026;SDS011;6580;42.680;23.324;2023-05-07T04:26:06;7.57;;;6.37;;
13026;SDS011;6580;42.680;23.324;2023-05-07T04:28:57;8.23;;;6.63;;
13026;SDS011;6580;42.680;23.324;2023-05-07T04:31:44;8.40;;;7.03;;
13026;SDS011;6580;42.680;23.324;2023-05-07T04:34:35;8.27;;;6.53;;
13026;SDS011;6580;42.680;23.324;2023-05-07T04:37:23;8.00;;;6.77;;
13026;SDS011;6580;42.680;23.324;2023-05-07T04:40:13;8.77;;;7.10;;
13026;SDS011;6580;42.680;23.324;2023-05-07T04:42:59;7.70;;;6.90;;
13026;SDS011;6580;42.680;23.324;2023-05-07T04:45:46;9.17;;;7.43;;
13026;SDS011;6580;42.680;23.324;2023-05-07T04:48:32;8.77;;;7.90;;
13026;SDS011;6580;42.680;23.324;2023-05-07T04:51:18;9.20;;;7.53;;
13026;SDS011;6580;42.680;23.324;2023-05-07T04:54:05;9.73;;;8.00;;
13026;SDS011;6580;42.680;23.324;2023-05-07T04:56:50;8.70;;;7.80;;
13026;SDS011;6580;42.680;23.324;2023-05-07T04:59:35;8.80;;;7.50;;
13026;SDS011;6580;42.680;23.324;2023-05-07T05:02:29;10.80;;;7.23;;
13026;SDS011;6580;42.680;23.324;2023-05-07T05:05:15;9.17;;;7.57;;
13026;SDS011;6580;42.680;23.324;2023-05-07T05:08:01;8.50;;;7.70;;
13026;SDS011;6580;42.680;23.324;2023-05-07T05:10:50;12.57;;;7.70;;
13026;SDS011;6580;42.680;23.324;2023-05-07T05:13:35;9.00;;;8.10;;
13026;SDS011;6580;42.680;23.324;2023-05-07T05:16:21;7.80;;;7.00;;
13026;SDS011;6580;42.680;23.324;2023-05-07T05:19:08;9.03;;;7.57;;
13026;SDS011;6580;42.680;23.324;2023-05-07T05:21:55;8.00;;;7.10;;
13026;SDS011;6580;42.680;23.324;2023-05-07T05:24:41;7.10;;;6.40;;
13026;SDS011;6580;42.680;23.324;2023-05-07T05:27:26;8.07;;;6.37;;
13026;SDS011;6580;42.680;23.324;2023-05-07T05:30:13;7.13;;;6.43;;
13026;SDS011;6580;42.680;23.324;2023-05-07T05:33:01;8.13;;;7.20;;
13026;SDS011;6580;42.680;23.324;2023-05-07T05:35:52;7.27;;;5.90;;
13026;SDS011;6580;42.680;23.324;2023-05-07T05:38:42;7.85;;;6.68;;
13026;SDS011;6580;42.680;23.324;2023-05-07T05:41:30;6.88;;;5.97;;
13026;SDS011;6580;42.680;23.324;2023-05-07T05:44:16;7.82;;;6.40;;
13026;SDS011;6580;42.680;23.324;2023-05-07T05:47:02;8.75;;;6.72;;
13026;SDS011;6580;42.680;23.324;2023-05-07T05:49:51;7.75;;;6.57;;
13026;SDS011;6580;42.680;23.324;2023-05-07T05:52:38;7.18;;;6.47;;
13026;SDS011;6580;42.680;23.324;2023-05-07T05:55:24;8.15;;;6.82;;
13026;SDS011;6580;42.680;23.324;2023-05-07T05:58:09;6.85;;;6.03;;
13026;SDS011;6580;42.680;23.324;2023-05-07T06:00:55;7.72;;;6.60;;
13026;SDS011;6580;42.680;23.324;2023-05-07T06:03:41;8.10;;;6.75;;
13026;SDS011;6580;42.680;23.324;2023-05-07T06:06:28;7.65;;;6.90;;
13026;SDS011;6580;42.680;23.324;2023-05-07T06:09:16;7.05;;;6.38;;
13026;SDS011;6580;42.680;23.324;2023-05-07T06:12:01;7.35;;;6.65;;
13026;SDS011;6580;42.680;23.324;2023-05-07T06:14:47;6.80;;;6.20;;
13026;SDS011;6580;42.680;23.324;2023-05-07T06:17:33;7.25;;;6.47;;
13026;SDS011;6580;42.680;23.324;2023-05-07T06:20:19;7.15;;;6.13;;
13026;SDS011;6580;42.680;23.324;2023-05-07T06:23:04;6.90;;;6.20;;
13026;SDS011;6580;42.680;23.324;2023-05-07T06:25:51;7.43;;;6.63;;
13026;SDS011;6580;42.680;23.324;2023-05-07T06:28:36;7.55;;;6.80;;
13026;SDS011;6580;42.680;23.324;2023-05-07T06:31:28;6.35;;;5.75;;
13026;SDS011;6580;42.680;23.324;2023-05-07T06:34:16;7.00;;;6.30;;
13026;SDS011;6580;42.680;23.324;2023-05-07T06:37:02;7.45;;;6.55;;
13026;SDS011;6580;42.680;23.324;2023-05-07T06:39:52;6.72;;;6.03;;
13026;SDS011;6580;42.680;23.324;2023-05-07T06:42:39;6.85;;;6.13;;
13026;SDS011;6580;42.680;23.324;2023-05-07T06:45:24;6.95;;;5.95;;
13026;SDS011;6580;42.680;23.324;2023-05-07T06:48:10;6.82;;;6.05;;
13026;SDS011;6580;42.680;23.324;2023-05-07T06:50:55;7.65;;;6.35;;
13026;SDS011;6580;42.680;23.324;2023-05-07T06:53:41;5.85;;;5.35;;
13026;SDS011;6580;42.680;23.324;2023-05-07T06:56:26;6.70;;;6.10;;
13026;SDS011;6580;42.680;23.324;2023-05-07T06:59:13;5.75;;;5.25;;
13026;SDS011;6580;42.680;23.324;2023-05-07T07:01:59;5.88;;;5.05;;
13026;SDS011;6580;42.680;23.324;2023-05-07T07:04:45;7.40;;;5.95;;
13026;SDS011;6580;42.680;23.324;2023-05-07T07:07:30;6.22;;;5.20;;
13026;SDS011;6580;42.680;23.324;2023-05-07T07:10:17;4.97;;;4.57;;
13026;SDS011;6580;42.680;23.324;2023-05-07T07:13:02;4.95;;;4.50;;
13026;SDS011;6580;42.680;23.324;2023-05-07T07:15:49;5.85;;;5.25;;
13026;SDS011;6580;42.680;23.324;2023-05-07T07:18:35;9.15;;;5.20;;
13026;SDS011;6580;42.680;23.324;2023-05-07T07:21:21;6.20;;;5.60;;
13026;SDS011;6580;42.680;23.324;2023-05-07T07:24:06;5.97;;;5.32;;
13026;SDS011;6580;42.680;23.324;2023-05-07T07:26:51;5.18;;;4.68;;
13026;SDS011;6580;42.680;23.324;2023-05-07T07:29:38;6.05;;;5.35;;
13026;SDS011;6580;42.680;23.324;2023-05-07T07:32:25;5.95;;;5.35;;
13026;SDS011;6580;42.680;23.324;2023-05-07T07:35:12;6.22;;;5.22;;
13026;SDS011;6580;42.680;23.324;2023-05-07T07:38:01;5.95;;;5.35;;
13026;SDS011;6580;42.680;23.324;2023-05-07T07:40:47;5.95;;;5.50;;
13026;SDS011;6580;42.680;23.324;2023-05-07T07:43:32;6.03;;;5.43;;
13026;SDS011;6580;42.680;23.324;2023-05-07T07:46:19;5.72;;;5.22;;
13026;SDS011;6580;42.680;23.324;2023-05-07T07:49:06;6.03;;;5.50;;
13026;SDS011;6580;42.680;23.324;2023-05-07T07:51:51;6.75;;;6.07;;
13026;SDS011;6580;42.680;23.324;2023-05-07T07:54:36;7.20;;;6.60;;
13026;SDS011;6580;42.680;23.324;2023-05-07T07:57:22;7.43;;;6.72;;
13026;SDS011;6580;42.680;23.324;2023-05-07T08:00:08;7.07;;;6.40;;
13026;SDS011;6580;42.680;23.324;2023-05-07T08:02:54;7.22;;;6.25;;
13026;SDS011;6580;42.680;23.324;2023-05-07T08:05:41;7.22;;;6.55;;
13026;SDS011;6580;42.680;23.324;2023-05-07T08:08:26;7.57;;;6.85;;
13026;SDS011;6580;42.680;23.324;2023-05-07T08:11:12;6.75;;;6.15;;
13026;SDS011;6580;42.680;23.324;2023-05-07T08:13:57;7.18;;;6.47;;
13026;SDS011;6580;42.680;23.324;2023-05-07T08:16:43;6.88;;;5.75;;
13026;SDS011;6580;42.680;23.324;2023-05-07T08:19:28;6.18;;;5.57;;
13026;SDS011;6580;42.680;23.324;2023-05-07T08:22:15;5.85;;;5.35;;
13026;SDS011;6580;42.680;23.324;2023-05-07T08:25:02;6.20;;;5.70;;
13026;SDS011;6580;42.680;23.324;2023-05-07T08:27:47;5.30;;;4.85;;
13026;SDS011;6580;42.680;23.324;2023-05-07T08:30:33;5.80;;;5.30;;
13026;SDS011;6580;42.680;23.324;2023-05-07T08:33:18;6.47;;;5.88;;
13026;SDS011;6580;42.680;23.324;2023-05-07T08:36:04;5.38;;;4.97;;
13026;SDS011;6580;42.680;23.324;2023-05-07T08:38:51;6.15;;;5.65;;
13026;SDS011;6580;42.680;23.324;2023-05-07T08:41:37;5.55;;;5.05;;
13026;SDS011;6580;42.680;23.324;2023-05-07T08:44:22;5.82;;;5.22;;
13026;SDS011;6580;42.680;23.324;2023-05-07T08:47:10;5.88;;;5.28;;
13026;SDS011;6580;42.680;23.324;2023-05-07T08:49:55;5.10;;;4.70;;
13026;SDS011;6580;42.680;23.324;2023-05-07T08:52:40;5.45;;;5.05;;
13026;SDS011;6580;42.680;23.324;2023-05-07T08:55:28;5.03;;;4.63;;
13026;SDS011;6580;42.680;23.324;2023-05-07T08:58:13;4.38;;;3.97;;
13026;SDS011;6580;42.680;23.324;2023-05-07T09:00:59;6.95;;;5.97;;
13026;SDS011;6580;42.680;23.324;2023-05-07T09:03:49;6.18;;;4.38;;
13026;SDS011;6580;42.680;23.324;2023-05-07T09:06:35;4.47;;;4.07;;
13026;SDS011;6580;42.680;23.324;2023-05-07T09:09:25;4.95;;;4.45;;
13026;SDS011;6580;42.680;23.324;2023-05-07T09:12:13;4.47;;;4.07;;
13026;SDS011;6580;42.680;23.324;2023-05-07T09:14:59;4.22;;;3.92;;
13026;SDS011;6580;42.680;23.324;2023-05-07T09:17:44;4.75;;;4.30;;
13026;SDS011;6580;42.680;23.324;2023-05-07T09:20:31;4.72;;;4.03;;
13026;SDS011;6580;42.680;23.324;2023-05-07T09:23:16;3.95;;;3.63;;
13026;SDS011;6580;42.680;23.324;2023-05-07T09:26:02;4.75;;;4.15;;
13026;SDS011;6580;42.680;23.324;2023-05-07T09:28:49;4.53;;;4.10;;
13026;SDS011;6580;42.680;23.324;2023-05-07T09:31:36;4.30;;;3.75;;
13026;SDS011;6580;42.680;23.324;2023-05-07T09:34:22;4.45;;;4.03;;
13026;SDS011;6580;42.680;23.324;2023-05-07T09:37:07;5.85;;;4.38;;
13026;SDS011;6580;42.680;23.324;2023-05-07T09:39:57;4.35;;;4.05;;
13026;SDS011;6580;42.680;23.324;2023-05-07T09:42:50;3.70;;;3.40;;
13026;SDS011;6580;42.680;23.324;2023-05-07T09:45:37;4.22;;;3.83;;
13026;SDS011;6580;42.680;23.324;2023-05-07T09:48:23;4.10;;;3.80;;
13026;SDS011;6580;42.680;23.324;2023-05-07T09:51:13;4.00;;;3.70;;
13026;SDS011;6580;42.680;23.324;2023-05-07T09:54:03;4.03;;;3.72;;
13026;SDS011;6580;42.680;23.324;2023-05-07T09:56:50;3.90;;;3.50;;
13026;SDS011;6580;42.680;23.324;2023-05-07T09:59:38;4.15;;;3.70;;
13026;SDS011;6580;42.680;23.324;2023-05-07T10:02:29;3.92;;;3.58;;
13026;SDS011;6580;42.680;23.324;2023-05-07T10:05:17;3.47;;;3.17;;
13026;SDS011;6580;42.680;23.324;2023-05-07T10:08:03;3.05;;;2.85;;
13026;SDS011;6580;42.680;23.324;2023-05-07T10:10:49;3.28;;;3.08;;
13026;SDS011;6580;42.680;23.324;2023-05-07T10:13:35;2.75;;;2.50;;
13026;SDS011;6580;42.680;23.324;2023-05-07T10:16:21;3.10;;;2.85;;
13026;SDS011;6580;42.680;23.324;2023-05-07T10:19:10;3.25;;;3.00;;
13026;SDS011;6580;42.680;23.324;2023-05-07T10:21:58;3.17;;;2.97;;
13026;SDS011;6580;42.680;23.324;2023-05-07T10:24:48;3.40;;;3.10;;
13026;SDS011;6580;42.680;23.324;2023-05-07T10:27:38;3.60;;;3.30;;
13026;SDS011;6580;42.680;23.324;2023-05-07T10:30:26;2.97;;;2.78;;
13026;SDS011;6580;42.680;23.324;2023-05-07T10:33:22;4.35;;;3.97;;
13026;SDS011;6580;42.680;23.324;2023-05-07T10:36:12;4.30;;;3.90;;
13026;SDS011;6580;42.680;23.324;2023-05-07T10:39:03;3.35;;;3.05;;
13026;SDS011;6580;42.680;23.324;2023-05-07T10:41:54;6.30;;;4.90;;
13026;SDS011;6580;42.680;23.324;2023-05-07T10:44:40;14.55;;;10.68;;
13026;SDS011;6580;42.680;23.324;2023-05-07T10:47:26;3.88;;;3.58;;
13026;SDS011;6580;42.680;23.324;2023-05-07T10:50:22;3.30;;;3.00;;
13026;SDS011;6580;42.680;23.324;2023-05-07T10:53:25;3.22;;;3.03;;
13026;SDS011;6580;42.680;23.324;2023-05-07T10:56:23;15.00;;;11.48;;
13026;SDS011;6580;42.680;23.324;2023-05-07T10:59:30;3.47;;;3.17;;
13026;SDS011;6580;42.680;23.324;2023-05-07T11:05:46;3.80;;;3.45;;
13026;SDS011;6580;42.680;23.324;2023-05-07T11:08:53;3.13;;;2.92;;
13026;SDS011;6580;42.680;23.324;2023-05-07T11:11:45;3.53;;;3.22;;
13026;SDS011;6580;42.680;23.324;2023-05-07T11:14:44;4.45;;;4.05;;
13026;SDS011;6580;42.680;23.324;2023-05-07T11:17:30;6.95;;;6.25;;
13026;SDS011;6580;42.680;23.324;2023-05-07T11:20:19;4.47;;;4.07;;
13026;SDS011;6580;42.680;23.324;2023-05-07T11:23:06;6.90;;;4.65;;
13026;SDS011;6580;42.680;23.324;2023-05-07T11:26:03;4.28;;;3.92;;
13026;SDS011;6580;42.680;23.324;2023-05-07T11:28:49;4.00;;;3.55;;
13026;SDS011;6580;42.680;23.324;2023-05-07T11:31:39;3.90;;;3.60;;
13026;SDS011;6580;42.680;23.324;2023-05-07T11:34:26;5.10;;;4.70;;
13026;SDS011;6580;42.680;23.324;2023-05-07T11:37:12;13.10;;;10.55;;
13026;SDS011;6580;42.680;23.324;2023-05-07T11:40:04;3.50;;;3.22;;
13026;SDS011;6580;42.680;23.324;2023-05-07T11:42:54;3.15;;;2.95;;
13026;SDS011;6580;42.680;23.324;2023-05-07T11:45:40;3.35;;;3.05;;
13026;SDS011;6580;42.680;23.324;2023-05-07T11:48:26;3.13;;;2.92;;
13026;SDS011;6580;42.680;23.324;2023-05-07T11:51:11;3.50;;;3.20;;
13026;SDS011;6580;42.680;23.324;2023-05-07T11:53:59;3.47;;;3.28;;
13026;SDS011;6580;42.680;23.324;2023-05-07T11:56:53;3.20;;;3.00;;
13026;SDS011;6580;42.680;23.324;2023-05-07T11:59:47;3.22;;;3.00;;
13026;SDS011;6580;42.680;23.324;2023-05-07T12:02:37;3.20;;;3.00;;
13026;SDS011;6580;42.680;23.324;2023-05-07T12:05:23;3.67;;;3.38;;
13026;SDS011;6580;42.680;23.324;2023-05-07T12:08:11;2.95;;;2.75;;
13026;SDS011;6580;42.680;23.324;2023-05-07T12:10:59;3.30;;;3.10;;
13026;SDS011;6580;42.680;23.324;2023-05-07T12:13:55;3.45;;;3.08;;
13026;SDS011;6580;42.680;23.324;2023-05-07T12:16:46;3.20;;;3.00;;
13026;SDS011;6580;42.680;23.324;2023-05-07T12:19:32;3.05;;;2.83;;
13026;SDS011;6580;42.680;23.324;2023-05-07T12:22:22;3.30;;;3.10;;
13026;SDS011;6580;42.680;23.324;2023-05-07T12:25:09;3.67;;;3.38;;
13026;SDS011;6580;42.680;23.324;2023-05-07T12:28:00;2.83;;;2.63;;
13026;SDS011;6580;42.680;23.324;2023-05-07T12:30:46;2.70;;;2.50;;
13026;SDS011;6580;42.680;23.324;2023-05-07T12:33:36;9.65;;;6.97;;
13026;SDS011;6580;42.680;23.324;2023-05-07T12:36:22;3.60;;;3.30;;
13026;SDS011;6580;42.680;23.324;2023-05-07T12:39:09;3.00;;;2.80;;
13026;SDS011;6580;42.680;23.324;2023-05-07T12:41:55;2.65;;;2.55;;
13026;SDS011;6580;42.680;23.324;2023-05-07T12:44:45;3.40;;;3.10;;
13026;SDS011;6580;42.680;23.324;2023-05-07T12:47:32;3.03;;;2.83;;
13026;SDS011;6580;42.680;23.324;2023-05-07T12:50:20;2.90;;;2.70;;
13026;SDS011;6580;42.680;23.324;2023-05-07T12:53:06;2.88;;;2.70;;
13026;SDS011;6580;42.680;23.324;2023-05-07T12:55:55;2.80;;;2.60;;
13026;SDS011;6580;42.680;23.324;2023-05-07T12:58:42;2.95;;;2.75;;
13026;SDS011;6580;42.680;23.324;2023-05-07T13:01:29;3.60;;;3.30;;
13026;SDS011;6580;42.680;23.324;2023-05-07T13:04:15;3.13;;;2.92;;
13026;SDS011;6580;42.680;23.324;2023-05-07T13:07:02;2.78;;;2.58;;
13026;SDS011;6580;42.680;23.324;2023-05-07T13:09:47;2.90;;;2.60;;
13026;SDS011;6580;42.680;23.324;2023-05-07T13:12:33;3.60;;;3.30;;
13026;SDS011;6580;42.680;23.324;2023-05-07T13:15:19;2.95;;;2.75;;
13026;SDS011;6580;42.680;23.324;2023-05-07T13:18:05;3.17;;;2.83;;
13026;SDS011;6580;42.680;23.324;2023-05-07T13:20:51;4.07;;;2.80;;
13026;SDS011;6580;42.680;23.324;2023-05-07T13:23:39;3.60;;;3.20;;
13026;SDS011;6580;42.680;23.324;2023-05-07T13:26:25;3.55;;;2.90;;
13026;SDS011;6580;42.680;23.324;2023-05-07T13:29:11;3.70;;;3.40;;
13026;SDS011;6580;42.680;23.324;2023-05-07T13:31:56;3.50;;;3.20;;
13026;SDS011;6580;42.680;23.324;2023-05-07T13:34:42;3.10;;;2.80;;
13026;SDS011;6580;42.680;23.324;2023-05-07T13:37:29;3.35;;;3.05;;
13026;SDS011;6580;42.680;23.324;2023-05-07T13:40:18;3.22;;;3.03;;
13026;SDS011;6580;42.680;23.324;2023-05-07T13:43:05;2.85;;;2.65;;
13026;SDS011;6580;42.680;23.324;2023-05-07T13:45:52;3.25;;;2.95;;
13026;SDS011;6580;42.680;23.324;2023-05-07T13:48:41;3.17;;;2.97;;
13026;SDS011;6580;42.680;23.324;2023-05-07T13:51:29;3.30;;;3.00;;
13026;SDS011;6580;42.680;23.324;2023-05-07T13:54:14;2.72;;;2.53;;
13026;SDS011;6580;42.680;23.324;2023-05-07T13:57:01;2.90;;;2.70;;
13026;SDS011;6580;42.680;23.324;2023-05-07T13:59:46;2.88;;;2.50;;
13026;SDS011;6580;42.680;23.324;2023-05-07T14:02:32;3.45;;;3.15;;
13026;SDS011;6580;42.680;23.324;2023-05-07T14:05:17;2.70;;;2.50;;
13026;SDS011;6580;42.680;23.324;2023-05-07T14:08:03;2.90;;;2.60;;
13026;SDS011;6580;42.680;23.324;2023-05-07T14:10:49;3.08;;;2.78;;
13026;SDS011;6580;42.680;23.324;2023-05-07T14:13:37;3.45;;;3.15;;
13026;SDS011;6580;42.680;23.324;2023-05-07T14:16:23;5.63;;;4.38;;
13026;SDS011;6580;42.680;23.324;2023-05-07T14:19:08;3.30;;;3.10;;
13026;SDS011;6580;42.680;23.324;2023-05-07T14:21:55;2.95;;;2.70;;
13026;SDS011;6580;42.680;23.324;2023-05-07T14:24:41;3.83;;;3.40;;
13026;SDS011;6580;42.680;23.324;2023-05-07T14:27:26;3.70;;;3.40;;
13026;SDS011;6580;42.680;23.324;2023-05-07T14:30:14;2.97;;;2.78;;
13026;SDS011;6580;42.680;23.324;2023-05-07T14:33:02;3.25;;;3.05;;
13026;SDS011;6580;42.680;23.324;2023-05-07T14:35:48;3.20;;;2.90;;
13026;SDS011;6580;42.680;23.324;2023-05-07T14:38:33;3.05;;;2.85;;
13026;SDS011;6580;42.680;23.324;2023-05-07T14:41:22;3.80;;;3.50;;
13026;SDS011;6580;42.680;23.324;2023-05-07T14:44:08;4.03;;;3.70;;
13026;SDS011;6580;42.680;23.324;2023-05-07T14:46:57;4.32;;;3.58;;
13026;SDS011;6580;42.680;23.324;2023-05-07T14:49:43;3.00;;;2.80;;
13026;SDS011;6580;42.680;23.324;2023-05-07T14:52:30;3.22;;;2.92;;
13026;SDS011;6580;42.680;23.324;2023-05-07T14:55:16;2.95;;;2.75;;
13026;SDS011;6580;42.680;23.324;2023-05-07T14:58:01;3.42;;;3.13;;
13026;SDS011;6580;42.680;23.324;2023-05-07T15:00:47;2.95;;;2.75;;
13026;SDS011;6580;42.680;23.324;2023-05-07T15:03:34;2.70;;;2.60;;
13026;SDS011;6580;42.680;23.324;2023-05-07T15:06:19;5.28;;;4.05;;
13026;SDS011;6580;42.680;23.324;2023-05-07T15:09:06;3.50;;;3.17;;
13026;SDS011;6580;42.680;23.324;2023-05-07T15:11:52;3.95;;;3.65;;
13026;SDS011;6580;42.680;23.324;2023-05-07T15:14:39;3.00;;;2.80;;
13026;SDS011;6580;42.680;23.324;2023-05-07T15:17:25;2.75;;;2.60;;
13026;SDS011;6580;42.680;23.324;2023-05-07T15:20:14;2.72;;;2.53;;
13026;SDS011;6580;42.680;23.324;2023-05-07T15:22:59;3.55;;;3.25;;
13026;SDS011;6580;42.680;23.324;2023-05-07T15:25:45;3.47;;;3.20;;
13026;SDS011;6580;42.680;23.324;2023-05-07T15:28:30;3.13;;;2.92;;
13026;SDS011;6580;42.680;23.324;2023-05-07T15:31:16;3.17;;;2.97;;
13026;SDS011;6580;42.680;23.324;2023-05-07T15:34:02;3.15;;;2.95;;
13026;SDS011;6580;42.680;23.324;2023-05-07T15:36:49;2.92;;;2.72;;
13026;SDS011;6580;42.680;23.324;2023-05-07T15:39:37;3.42;;;3.13;;
13026;SDS011;6580;42.680;23.324;2023-05-07T15:42:23;3.50;;;3.20;;
13026;SDS011;6580;42.680;23.324;2023-05-07T15:45:09;2.65;;;2.45;;
13026;SDS011;6580;42.680;23.324;2023-05-07T15:47:54;3.40;;;3.10;;
13026;SDS011;6580;42.680;23.324;2023-05-07T15:50:40;3.00;;;2.80;;
13026;SDS011;6580;42.680;23.324;2023-05-07T15:53:27;3.28;;;3.08;;
13026;SDS011;6580;42.680;23.324;2023-05-07T15:56:13;3.17;;;2.97;;
13026;SDS011;6580;42.680;23.324;2023-05-07T15:58:58;3.75;;;3.45;;
13026;SDS011;6580;42.680;23.324;2023-05-07T16:01:44;3.50;;;3.20;;
13026;SDS011;6580;42.680;23.324;2023-05-07T16:04:30;3.72;;;3.42;;
13026;SDS011;6580;42.680;23.324;2023-05-07T16:07:18;3.15;;;2.95;;
13026;SDS011;6580;42.680;23.324;2023-05-07T16:10:08;3.30;;;3.00;;
13026;SDS011;6580;42.680;23.324;2023-05-07T16:12:54;3.30;;;3.10;;
13026;SDS011;6580;42.680;23.324;2023-05-07T16:15:41;3.00;;;2.80;;
13026;SDS011;6580;42.680;23.324;2023-05-07T16:18:26;3.47;;;3.17;;
13026;SDS011;6580;42.680;23.324;2023-05-07T16:21:13;5.25;;;4.10;;
13026;SDS011;6580;42.680;23.324;2023-05-07T16:23:58;3.47;;;3.20;;
13026;SDS011;6580;42.680;23.324;2023-05-07T16:26:45;2.85;;;2.63;;
13026;SDS011;6580;42.680;23.324;2023-05-07T16:29:31;2.92;;;2.72;;
13026;SDS011;6580;42.680;23.324;2023-05-07T16:32:17;3.00;;;2.80;;
13026;SDS011;6580;42.680;23.324;2023-05-07T16:35:02;2.35;;;2.15;;
13026;SDS011;6580;42.680;23.324;2023-05-07T16:37:51;2.90;;;2.70;;
13026;SDS011;6580;42.680;23.324;2023-05-07T16:40:36;6.82;;;5.53;;
13026;SDS011;6580;42.680;23.324;2023-05-07T16:43:24;3.35;;;3.05;;
13026;SDS011;6580;42.680;23.324;2023-05-07T16:46:12;4.43;;;3.72;;
13026;SDS011;6580;42.680;23.324;2023-05-07T16:48:57;3.22;;;3.03;;
13026;SDS011;6580;42.680;23.324;2023-05-07T16:51:43;3.20;;;3.00;;
13026;SDS011;6580;42.680;23.324;2023-05-07T16:54:29;3.60;;;3.30;;
13026;SDS011;6580;42.680;23.324;2023-05-07T16:57:15;2.90;;;2.70;;